Madeline — WDE3220 — position and weather

sailwx.info

Track history (hours):
 
Tides and Currents Weather Stations Pressure Air Temp Water Temp Dewpoint Dewpoint Depression Visibility Wind Speed Wind Dir Waves Ship Positions

Madeline

Owner: TUG MADELINE, LLC, NEW CASTLE, DE. More information available from US FCC via Universal Licensing System and Coast Guard Vessel Documentation Center.

Last reported at 2017-Feb-22 06:33 UTC. Time now 2017-Feb-22 06:38 UTC.
Position N 39°53' W 075°11'.

; draft 4.6 m.

Type: Tug. MMSI: 367335830.

Date/timePositionNaut miles runAvg speedWind from/ knotsBaromVisibWave heightAir tempDewpointWater temp
2017-Feb-22 06:33N 39°53' W 075°11'0 0.0
2017-Feb-22 05:33N 39°53' W 075°11'0 0.0
2017-Feb-22 04:34N 39°53' W 075°11'0 0.0
2017-Feb-22 03:34N 39°53' W 075°11'0 0.0
2017-Feb-22 02:33N 39°53' W 075°11'0 0.0
2017-Feb-22 01:33N 39°53' W 075°11'0 0.0
2017-Feb-22 00:33N 39°53' W 075°11'0 0.0
2017-Feb-21 23:34N 39°53' W 075°11'0 0.0
2017-Feb-21 22:33N 39°53' W 075°11'0 0.0
2017-Feb-21 21:33N 39°53' W 075°11'0 0.0
2017-Feb-21 20:34N 39°53' W 075°11'0 0.0
2017-Feb-21 19:34N 39°53' W 075°11'0 0.0
2017-Feb-21 18:33N 39°53' W 075°11'0 0.0
2017-Feb-21 17:33N 39°53' W 075°11'0 0.0
2017-Feb-21 16:33N 39°53' W 075°11'0 0.0
2017-Feb-21 15:33N 39°53' W 075°11'0 0.0
2017-Feb-21 14:34N 39°53' W 075°11'0 0.0
2017-Feb-21 13:33N 39°53' W 075°11'0 0.0
2017-Feb-21 12:33N 39°53' W 075°11'0 0.0
2017-Feb-21 11:33N 39°53' W 075°11'2 2.4
2017-Feb-21 10:33N 39°54' W 075°08'1 0.8
2017-Feb-21 09:34N 39°53' W 075°09'1 0.8
2017-Feb-21 08:33N 39°54' W 075°08'0 0.0
2017-Feb-21 07:33N 39°54' W 075°08'0 0.0
2017-Feb-21 06:32N 39°54' W 075°08'0 0.0
2017-Feb-21 05:26N 39°54' W 075°08'0 0.1
2017-Feb-21 04:33N 39°54' W 075°08'0 0.0
2017-Feb-21 03:24N 39°54' W 075°08'0 0.0
2017-Feb-21 02:32N 39°54' W 075°08'0 0.0
2017-Feb-21 01:29N 39°54' W 075°08'0 0.0
2017-Feb-21 00:33N 39°54' W 075°08'0 0.0
2017-Feb-20 23:33N 39°54' W 075°08'0 0.0
2017-Feb-20 22:32N 39°54' W 075°08'0 0.0
2017-Feb-20 21:33N 39°54' W 075°08'0 0.0
2017-Feb-20 20:30N 39°54' W 075°08'0 0.0
2017-Feb-20 19:32N 39°54' W 075°08'0 0.0
2017-Feb-20 18:33N 39°54' W 075°08'0 0.0
2017-Feb-20 17:28N 39°54' W 075°08'1 1.1
2017-Feb-20 16:33N 39°53' W 075°09'1 0.6
2017-Feb-20 14:31N 39°54' W 075°08'0 0.0
2017-Feb-20 13:31N 39°54' W 075°08'0 0.0
2017-Feb-20 12:33N 39°54' W 075°08'0 0.2
2017-Feb-20 11:33N 39°54' W 075°08'1 1.2
2017-Feb-20 10:33N 39°53' W 075°09'2 1.5
2017-Feb-20 09:33N 39°53' W 075°11'0 0.0
2017-Feb-20 08:33N 39°53' W 075°11'0 0.0
2017-Feb-20 07:33N 39°53' W 075°11'0 0.0
2017-Feb-20 06:33N 39°53' W 075°11'0 0.0
2017-Feb-20 05:26N 39°53' W 075°11'1 1.0
2017-Feb-20 04:33N 39°53' W 075°12'4 3.7
2017-Feb-20 03:33N 39°51' W 075°16'0 0.0
2017-Feb-20 02:33N 39°51' W 075°16'2 2.1
2017-Feb-20 01:33N 39°51' W 075°19'6 6.3
2017-Feb-20 00:33N 39°53' W 075°11'0 0.1
2017-Feb-19 23:33N 39°53' W 075°11'0 0.0
2017-Feb-19 22:33N 39°53' W 075°11'0 0.0
2017-Feb-19 21:33N 39°53' W 075°11'0 0.0
2017-Feb-19 20:33N 39°53' W 075°11'0 0.0
2017-Feb-19 19:33N 39°53' W 075°11'0 0.0
2017-Feb-19 18:33N 39°53' W 075°11'0 0.0
2017-Feb-19 17:33N 39°53' W 075°11'0 0.0
2017-Feb-19 16:33N 39°53' W 075°11'0 0.0
2017-Feb-19 15:33N 39°53' W 075°11'0 0.0
2017-Feb-19 14:33N 39°53' W 075°11'0 0.0
2017-Feb-19 13:33N 39°53' W 075°11'0 0.0
2017-Feb-19 12:33N 39°53' W 075°11'0 0.0
2017-Feb-19 11:33N 39°53' W 075°11'0 0.0
2017-Feb-19 10:33N 39°53' W 075°11'0 0.0
2017-Feb-19 09:33N 39°53' W 075°11'0 0.0
2017-Feb-19 08:33N 39°53' W 075°11'0 0.0
2017-Feb-19 07:33N 39°53' W 075°11'0 0.0
2017-Feb-19 06:33N 39°53' W 075°11'0 0.0
2017-Feb-19 05:33N 39°53' W 075°11'0 0.0
2017-Feb-19 04:33N 39°53' W 075°11'0 0.0
2017-Feb-19 03:33N 39°53' W 075°11'0 0.0
2017-Feb-19 02:33N 39°53' W 075°11'0 0.0
2017-Feb-19 01:33N 39°53' W 075°11'0 0.0
2017-Feb-19 00:33N 39°53' W 075°11'0 0.0
2017-Feb-18 23:33N 39°53' W 075°11'0 0.0
2017-Feb-18 22:33N 39°53' W 075°11'0 0.2
2017-Feb-18 21:33N 39°53' W 075°11'0 0.1
2017-Feb-18 20:33N 39°53' W 075°11'0 0.1
2017-Feb-18 19:33N 39°53' W 075°11'0 0.0
2017-Feb-18 18:33N 39°53' W 075°11'0 0.0
2017-Feb-18 17:33N 39°53' W 075°11'0 0.0
2017-Feb-18 16:33N 39°53' W 075°11'0 0.0
2017-Feb-18 15:33N 39°53' W 075°11'0 0.0
2017-Feb-18 14:33N 39°53' W 075°11'0 0.0
2017-Feb-18 13:33N 39°53' W 075°11'0 0.0
2017-Feb-18 12:33N 39°53' W 075°11'0 0.0
2017-Feb-18 11:33N 39°53' W 075°11'0 0.0
2017-Feb-18 10:33N 39°53' W 075°11'0 0.0
2017-Feb-18 09:33N 39°53' W 075°11'0 0.0
2017-Feb-18 08:33N 39°53' W 075°11'0 0.0
2017-Feb-18 07:33N 39°53' W 075°11'0 0.0
2017-Feb-18 06:33N 39°53' W 075°11'0 0.0
2017-Feb-18 05:28N 39°53' W 075°11'0 0.0
2017-Feb-18 04:33N 39°53' W 075°11'0 0.0
2017-Feb-18 03:33N 39°53' W 075°11'0 0.0
2017-Feb-18 02:33N 39°53' W 075°11'0 0.0
2017-Feb-18 01:33N 39°53' W 075°11'0 0.0
2017-Feb-18 00:33N 39°53' W 075°11'0 0.2
2017-Feb-17 23:33N 39°53' W 075°11'3 3.4
2017-Feb-17 22:33N 39°51' W 075°15'0 0.0
2017-Feb-17 21:33N 39°51' W 075°15'0 0.0
2017-Feb-17 20:33N 39°51' W 075°15'0 0.0
2017-Feb-17 19:33N 39°51' W 075°15'7 6.6
2017-Feb-17 18:33N 39°49' W 075°23'1 1.0
2017-Feb-17 17:33N 39°49' W 075°24'1 1.3
2017-Feb-17 16:33N 39°48' W 075°26'0 0.0
2017-Feb-17 15:33N 39°48' W 075°26'0 0.0
2017-Feb-17 14:33N 39°48' W 075°26'0 0.0
2017-Feb-17 13:33N 39°48' W 075°26'0 0.0
2017-Feb-17 12:33N 39°48' W 075°26'0 0.0
2017-Feb-17 11:33N 39°48' W 075°26'0 0.0
2017-Feb-17 10:33N 39°48' W 075°26'0 0.0
2017-Feb-17 09:33N 39°48' W 075°26'0 0.0
2017-Feb-17 08:33N 39°48' W 075°26'0 0.0
2017-Feb-17 07:33N 39°48' W 075°26'0 0.0
2017-Feb-17 06:33N 39°48' W 075°26'0 0.0
2017-Feb-17 05:33N 39°48' W 075°26'0 0.0
2017-Feb-17 04:33N 39°48' W 075°26'0 0.0
2017-Feb-17 03:33N 39°48' W 075°26'1 1.2
2017-Feb-17 02:33N 39°49' W 075°24'0 0.1
2017-Feb-17 01:33N 39°49' W 075°24'1 1.3
2017-Feb-17 00:33N 39°48' W 075°26'0 0.0
2017-Feb-16 23:33N 39°48' W 075°26'6 6.5
2017-Feb-16 22:33N 39°43' W 075°31'0 0.1
2017-Feb-16 21:33N 39°43' W 075°31'0 0.0
2017-Feb-16 20:33N 39°43' W 075°31'0 0.0
2017-Feb-16 19:33N 39°43' W 075°31'0 0.0
2017-Feb-16 18:33N 39°43' W 075°31'0 0.0
2017-Feb-16 17:33N 39°43' W 075°31'0 0.0
2017-Feb-16 16:33N 39°43' W 075°31'6 6.5
2017-Feb-16 15:33N 39°48' W 075°26'0 0.0
2017-Feb-16 14:33N 39°48' W 075°26'0 0.3
2017-Feb-16 13:33N 39°48' W 075°26'6 5.7
2017-Feb-16 12:33N 39°51' W 075°19'4 4.1
2017-Feb-16 11:34N 39°51' W 075°14'0 0.0
2017-Feb-16 10:34N 39°51' W 075°14'2 1.6
2017-Feb-16 09:33N 39°51' W 075°16'2 2.1
2017-Feb-16 08:34N 39°52' W 075°13'0 0.3
2017-Feb-16 07:33N 39°52' W 075°13'2 1.8
2017-Feb-16 06:33N 39°53' W 075°11'0 0.0
2017-Feb-16 05:33N 39°53' W 075°11'0 0.0
2017-Feb-16 04:33N 39°53' W 075°11'0 0.0
2017-Feb-16 03:33N 39°53' W 075°11'0 0.0
2017-Feb-16 02:33N 39°53' W 075°11'0 0.0
2017-Feb-16 01:33N 39°53' W 075°11'0 0.0
2017-Feb-16 00:33N 39°53' W 075°11'0 0.0
2017-Feb-15 23:33N 39°53' W 075°11'1 1.3
2017-Feb-15 22:33N 39°52' W 075°12'3 2.7
2017-Feb-15 21:33N 39°55' W 075°12'1 1.3
2017-Feb-15 20:33N 39°54' W 075°12'1 1.2
2017-Feb-15 19:33N 39°53' W 075°11'0 0.0
2017-Feb-15 18:33N 39°53' W 075°11'0 0.0
2017-Feb-15 17:33N 39°53' W 075°11'0 0.0
2017-Feb-15 16:33N 39°53' W 075°11'0 0.0
2017-Feb-15 15:33N 39°53' W 075°11'0 0.0
2017-Feb-15 14:33N 39°53' W 075°11'0 0.0
2017-Feb-15 13:33N 39°53' W 075°11'0 0.0
2017-Feb-15 12:33N 39°53' W 075°11'0 0.0
2017-Feb-15 11:33N 39°53' W 075°11'0 0.0
2017-Feb-15 10:33N 39°53' W 075°11'0 0.0
2017-Feb-15 09:33N 39°53' W 075°11'0 0.0
2017-Feb-15 08:33N 39°53' W 075°11'0 0.0
2017-Feb-15 07:33N 39°53' W 075°11'0 0.0
2017-Feb-15 06:33N 39°53' W 075°11'2 1.8
2017-Feb-15 05:33N 39°52' W 075°13'1 0.9
2017-Feb-15 04:33N 39°52' W 075°14'0 0.2
2017-Feb-15 03:33N 39°52' W 075°14'3 2.5
2017-Feb-15 02:33N 39°53' W 075°11'0 0.0
2017-Feb-15 01:33N 39°53' W 075°11'0 0.0
2017-Feb-15 00:33N 39°53' W 075°11'1 1.2
2017-Feb-14 23:33N 39°54' W 075°12'1 1.2
2017-Feb-14 22:33N 39°53' W 075°11'0 0.0
2017-Feb-14 21:33N 39°53' W 075°11'0 0.0
2017-Feb-14 20:33N 39°53' W 075°11'1 1.3
2017-Feb-14 19:33N 39°52' W 075°12'2 1.5
2017-Feb-14 18:33N 39°51' W 075°14'0 0.0
2017-Feb-14 17:33N 39°51' W 075°14'2 2.1
2017-Feb-14 16:33N 39°51' W 075°16'1 1.1
2017-Feb-14 15:33N 39°51' W 075°15'1 0.6
2017-Feb-14 14:33N 39°51' W 075°16'0 0.0
2017-Feb-14 13:33N 39°51' W 075°16'0 0.0
2017-Feb-14 12:33N 39°51' W 075°16'7 7.0
2017-Feb-14 11:33N 39°49' W 075°24'0 0.0
2017-Feb-14 10:33N 39°49' W 075°24'0 0.1
2017-Feb-14 09:33N 39°49' W 075°24'1 0.5
2017-Feb-14 08:34N 39°48' W 075°25'1 1.3
2017-Feb-14 07:33N 39°49' W 075°23'6 6.1
2017-Feb-14 06:33N 39°51' W 075°16'0 0.0
2017-Feb-14 05:33N 39°51' W 075°16'0 0.0
2017-Feb-14 04:33N 39°51' W 075°16'0 0.0
2017-Feb-14 03:33N 39°51' W 075°16'0 0.0
2017-Feb-14 02:33N 39°51' W 075°16'0 0.0
2017-Feb-14 01:33N 39°51' W 075°16'0 0.0
2017-Feb-14 00:33N 39°51' W 075°16'0 0.4
2017-Feb-13 23:34N 39°51' W 075°16'0 0.0
2017-Feb-13 22:33N 39°51' W 075°16'2 2.1
2017-Feb-13 21:34N 39°51' W 075°19'2 2.2
2017-Feb-13 20:33N 39°51' W 075°16'2 1.9
2017-Feb-13 19:33N 39°51' W 075°14'3 2.7
2017-Feb-13 18:33N 39°53' W 075°11'3 2.6
2017-Feb-13 17:33N 39°54' W 075°08'2 1.9
2017-Feb-13 16:33N 39°53' W 075°10'3 3.0
2017-Feb-13 15:33N 39°52' W 075°14'2 1.9
2017-Feb-13 14:33N 39°51' W 075°16'0 0.0
2017-Feb-13 13:33N 39°51' W 075°16'0 0.0
2017-Feb-13 12:33N 39°51' W 075°16'0 0.0
2017-Feb-13 11:33N 39°51' W 075°16'0 0.0
2017-Feb-13 10:33N 39°51' W 075°16'0 0.0
2017-Feb-13 09:33N 39°51' W 075°16'0 0.0
2017-Feb-13 08:33N 39°51' W 075°16'0 0.0
2017-Feb-13 07:33N 39°51' W 075°16'4 4.4
2017-Feb-13 06:33N 39°50' W 075°21'3 2.8
2017-Feb-13 05:33N 39°49' W 075°24'2 1.9
2017-Feb-13 04:34N 39°48' W 075°26'1 0.7
2017-Feb-13 03:33N 39°48' W 075°26'0 0.0
2017-Feb-13 02:33N 39°48' W 075°26'0 0.0
2017-Feb-13 01:33N 39°48' W 075°26'0 0.0
2017-Feb-13 00:33N 39°48' W 075°26'0 0.0
2017-Feb-12 23:33N 39°48' W 075°26'1 1.5
2017-Feb-12 22:33N 39°49' W 075°24'6 6.5
2017-Feb-12 21:34N 39°51' W 075°16'1 0.9
2017-Feb-12 20:34N 39°51' W 075°17'1 1.2
2017-Feb-12 19:34N 39°51' W 075°16'0 0.0
2017-Feb-12 18:33N 39°51' W 075°16'0 0.0
2017-Feb-12 17:34N 39°51' W 075°16'0 0.0
2017-Feb-12 16:33N 39°51' W 075°16'8 8.2
2017-Feb-12 15:33N 39°48' W 075°26'0 0.1
2017-Feb-12 14:33N 39°48' W 075°26'0 0.0
2017-Feb-12 13:33N 39°48' W 075°26'1 1.3
2017-Feb-12 12:34N 39°49' W 075°24'0 0.1
2017-Feb-12 11:33N 39°49' W 075°24'2 1.8
2017-Feb-12 10:33N 39°50' W 075°22'9 9.3
2017-Feb-12 09:33N 39°53' W 075°11'0 0.0
2017-Feb-12 08:34N 39°53' W 075°11'0 0.0
2017-Feb-12 07:33N 39°53' W 075°11'0 0.0
2017-Feb-12 06:33N 39°53' W 075°11'  
Track history (hours):
 
Tides and Currents Weather Stations Pressure Air Temp Water Temp Dewpoint Dewpoint Depression Visibility Wind Speed Wind Dir Waves Ship Positions

Madeline

Owner: TUG MADELINE, LLC, NEW CASTLE, DE. More information available from US FCC via Universal Licensing System and Coast Guard Vessel Documentation Center.

Last reported at 2017-Feb-22 06:33 UTC. Time now 2017-Feb-22 06:38 UTC.
Position N 39°53' W 075°11'.

; draft 4.6 m.

Type: Tug. MMSI: 367335830.

Date/timePositionNaut miles runAvg speedWind from/ knotsBaromVisibWave heightAir tempDewpointWater temp
2017-Feb-22 06:33N 39°53' W 075°11'0 0.0
2017-Feb-22 05:33N 39°53' W 075°11'0 0.0
2017-Feb-22 04:34N 39°53' W 075°11'0 0.0
2017-Feb-22 03:34N 39°53' W 075°11'0 0.0
2017-Feb-22 02:33N 39°53' W 075°11'0 0.0
2017-Feb-22 01:33N 39°53' W 075°11'0 0.0
2017-Feb-22 00:33N 39°53' W 075°11'0 0.0
2017-Feb-21 23:34N 39°53' W 075°11'0 0.0
2017-Feb-21 22:33N 39°53' W 075°11'0 0.0
2017-Feb-21 21:33N 39°53' W 075°11'0 0.0
2017-Feb-21 20:34N 39°53' W 075°11'0 0.0
2017-Feb-21 19:34N 39°53' W 075°11'0 0.0
2017-Feb-21 18:33N 39°53' W 075°11'0 0.0
2017-Feb-21 17:33N 39°53' W 075°11'0 0.0
2017-Feb-21 16:33N 39°53' W 075°11'0 0.0
2017-Feb-21 15:33N 39°53' W 075°11'0 0.0
2017-Feb-21 14:34N 39°53' W 075°11'0 0.0
2017-Feb-21 13:33N 39°53' W 075°11'0 0.0
2017-Feb-21 12:33N 39°53' W 075°11'0 0.0
2017-Feb-21 11:33N 39°53' W 075°11'2 2.4
2017-Feb-21 10:33N 39°54' W 075°08'1 0.8
2017-Feb-21 09:34N 39°53' W 075°09'1 0.8
2017-Feb-21 08:33N 39°54' W 075°08'0 0.0
2017-Feb-21 07:33N 39°54' W 075°08'0 0.0
2017-Feb-21 06:32N 39°54' W 075°08'0 0.0
2017-Feb-21 05:26N 39°54' W 075°08'0 0.1
2017-Feb-21 04:33N 39°54' W 075°08'0 0.0
2017-Feb-21 03:24N 39°54' W 075°08'0 0.0
2017-Feb-21 02:32N 39°54' W 075°08'0 0.0
2017-Feb-21 01:29N 39°54' W 075°08'0 0.0
2017-Feb-21 00:33N 39°54' W 075°08'0 0.0
2017-Feb-20 23:33N 39°54' W 075°08'0 0.0
2017-Feb-20 22:32N 39°54' W 075°08'0 0.0
2017-Feb-20 21:33N 39°54' W 075°08'0 0.0
2017-Feb-20 20:30N 39°54' W 075°08'0 0.0
2017-Feb-20 19:32N 39°54' W 075°08'0 0.0
2017-Feb-20 18:33N 39°54' W 075°08'0 0.0
2017-Feb-20 17:28N 39°54' W 075°08'1 1.1
2017-Feb-20 16:33N 39°53' W 075°09'1 0.6
2017-Feb-20 14:31N 39°54' W 075°08'0 0.0
2017-Feb-20 13:31N 39°54' W 075°08'0 0.0
2017-Feb-20 12:33N 39°54' W 075°08'0 0.2
2017-Feb-20 11:33N 39°54' W 075°08'1 1.2
2017-Feb-20 10:33N 39°53' W 075°09'2 1.5
2017-Feb-20 09:33N 39°53' W 075°11'0 0.0
2017-Feb-20 08:33N 39°53' W 075°11'0 0.0
2017-Feb-20 07:33N 39°53' W 075°11'0 0.0
2017-Feb-20 06:33N 39°53' W 075°11'0 0.0
2017-Feb-20 05:26N 39°53' W 075°11'1 1.0
2017-Feb-20 04:33N 39°53' W 075°12'4 3.7
2017-Feb-20 03:33N 39°51' W 075°16'0 0.0
2017-Feb-20 02:33N 39°51' W 075°16'2 2.1
2017-Feb-20 01:33N 39°51' W 075°19'6 6.3
2017-Feb-20 00:33N 39°53' W 075°11'0 0.1
2017-Feb-19 23:33N 39°53' W 075°11'0 0.0
2017-Feb-19 22:33N 39°53' W 075°11'0 0.0
2017-Feb-19 21:33N 39°53' W 075°11'0 0.0
2017-Feb-19 20:33N 39°53' W 075°11'0 0.0
2017-Feb-19 19:33N 39°53' W 075°11'0 0.0
2017-Feb-19 18:33N 39°53' W 075°11'0 0.0
2017-Feb-19 17:33N 39°53' W 075°11'0 0.0
2017-Feb-19 16:33N 39°53' W 075°11'0 0.0
2017-Feb-19 15:33N 39°53' W 075°11'0 0.0
2017-Feb-19 14:33N 39°53' W 075°11'0 0.0
2017-Feb-19 13:33N 39°53' W 075°11'0 0.0
2017-Feb-19 12:33N 39°53' W 075°11'0 0.0
2017-Feb-19 11:33N 39°53' W 075°11'0 0.0
2017-Feb-19 10:33N 39°53' W 075°11'0 0.0
2017-Feb-19 09:33N 39°53' W 075°11'0 0.0
2017-Feb-19 08:33N 39°53' W 075°11'0 0.0
2017-Feb-19 07:33N 39°53' W 075°11'0 0.0
2017-Feb-19 06:33N 39°53' W 075°11'0 0.0
2017-Feb-19 05:33N 39°53' W 075°11'0 0.0
2017-Feb-19 04:33N 39°53' W 075°11'0 0.0
2017-Feb-19 03:33N 39°53' W 075°11'0 0.0
2017-Feb-19 02:33N 39°53' W 075°11'0 0.0
2017-Feb-19 01:33N 39°53' W 075°11'0 0.0
2017-Feb-19 00:33N 39°53' W 075°11'0 0.0
2017-Feb-18 23:33N 39°53' W 075°11'0 0.0
2017-Feb-18 22:33N 39°53' W 075°11'0 0.2
2017-Feb-18 21:33N 39°53' W 075°11'0 0.1
2017-Feb-18 20:33N 39°53' W 075°11'0 0.1
2017-Feb-18 19:33N 39°53' W 075°11'0 0.0
2017-Feb-18 18:33N 39°53' W 075°11'0 0.0
2017-Feb-18 17:33N 39°53' W 075°11'0 0.0
2017-Feb-18 16:33N 39°53' W 075°11'0 0.0
2017-Feb-18 15:33N 39°53' W 075°11'0 0.0
2017-Feb-18 14:33N 39°53' W 075°11'0 0.0
2017-Feb-18 13:33N 39°53' W 075°11'0 0.0
2017-Feb-18 12:33N 39°53' W 075°11'0 0.0
2017-Feb-18 11:33N 39°53' W 075°11'0 0.0
2017-Feb-18 10:33N 39°53' W 075°11'0 0.0
2017-Feb-18 09:33N 39°53' W 075°11'0 0.0
2017-Feb-18 08:33N 39°53' W 075°11'0 0.0
2017-Feb-18 07:33N 39°53' W 075°11'0 0.0
2017-Feb-18 06:33N 39°53' W 075°11'0 0.0
2017-Feb-18 05:28N 39°53' W 075°11'0 0.0
2017-Feb-18 04:33N 39°53' W 075°11'0 0.0
2017-Feb-18 03:33N 39°53' W 075°11'0 0.0
2017-Feb-18 02:33N 39°53' W 075°11'0 0.0
2017-Feb-18 01:33N 39°53' W 075°11'0 0.0
2017-Feb-18 00:33N 39°53' W 075°11'0 0.2
2017-Feb-17 23:33N 39°53' W 075°11'3 3.4
2017-Feb-17 22:33N 39°51' W 075°15'0 0.0
2017-Feb-17 21:33N 39°51' W 075°15'0 0.0
2017-Feb-17 20:33N 39°51' W 075°15'0 0.0
2017-Feb-17 19:33N 39°51' W 075°15'7 6.6
2017-Feb-17 18:33N 39°49' W 075°23'1 1.0
2017-Feb-17 17:33N 39°49' W 075°24'1 1.3
2017-Feb-17 16:33N 39°48' W 075°26'0 0.0
2017-Feb-17 15:33N 39°48' W 075°26'0 0.0
2017-Feb-17 14:33N 39°48' W 075°26'0 0.0
2017-Feb-17 13:33N 39°48' W 075°26'0 0.0
2017-Feb-17 12:33N 39°48' W 075°26'0 0.0
2017-Feb-17 11:33N 39°48' W 075°26'0 0.0
2017-Feb-17 10:33N 39°48' W 075°26'0 0.0
2017-Feb-17 09:33N 39°48' W 075°26'0 0.0
2017-Feb-17 08:33N 39°48' W 075°26'0 0.0
2017-Feb-17 07:33N 39°48' W 075°26'0 0.0
2017-Feb-17 06:33N 39°48' W 075°26'0 0.0
2017-Feb-17 05:33N 39°48' W 075°26'0 0.0
2017-Feb-17 04:33N 39°48' W 075°26'0 0.0
2017-Feb-17 03:33N 39°48' W 075°26'1 1.2
2017-Feb-17 02:33N 39°49' W 075°24'0 0.1
2017-Feb-17 01:33N 39°49' W 075°24'1 1.3
2017-Feb-17 00:33N 39°48' W 075°26'0 0.0
2017-Feb-16 23:33N 39°48' W 075°26'6 6.5
2017-Feb-16 22:33N 39°43' W 075°31'0 0.1
2017-Feb-16 21:33N 39°43' W 075°31'0 0.0
2017-Feb-16 20:33N 39°43' W 075°31'0 0.0
2017-Feb-16 19:33N 39°43' W 075°31'0 0.0
2017-Feb-16 18:33N 39°43' W 075°31'0 0.0
2017-Feb-16 17:33N 39°43' W 075°31'0 0.0
2017-Feb-16 16:33N 39°43' W 075°31'6 6.5
2017-Feb-16 15:33N 39°48' W 075°26'0 0.0
2017-Feb-16 14:33N 39°48' W 075°26'0 0.3
2017-Feb-16 13:33N 39°48' W 075°26'6 5.7
2017-Feb-16 12:33N 39°51' W 075°19'4 4.1
2017-Feb-16 11:34N 39°51' W 075°14'0 0.0
2017-Feb-16 10:34N 39°51' W 075°14'2 1.6
2017-Feb-16 09:33N 39°51' W 075°16'2 2.1
2017-Feb-16 08:34N 39°52' W 075°13'0 0.3
2017-Feb-16 07:33N 39°52' W 075°13'2 1.8
2017-Feb-16 06:33N 39°53' W 075°11'0 0.0
2017-Feb-16 05:33N 39°53' W 075°11'0 0.0
2017-Feb-16 04:33N 39°53' W 075°11'0 0.0
2017-Feb-16 03:33N 39°53' W 075°11'0 0.0
2017-Feb-16 02:33N 39°53' W 075°11'0 0.0
2017-Feb-16 01:33N 39°53' W 075°11'0 0.0
2017-Feb-16 00:33N 39°53' W 075°11'0 0.0
2017-Feb-15 23:33N 39°53' W 075°11'1 1.3
2017-Feb-15 22:33N 39°52' W 075°12'3 2.7
2017-Feb-15 21:33N 39°55' W 075°12'1 1.3
2017-Feb-15 20:33N 39°54' W 075°12'1 1.2
2017-Feb-15 19:33N 39°53' W 075°11'0 0.0
2017-Feb-15 18:33N 39°53' W 075°11'0 0.0
2017-Feb-15 17:33N 39°53' W 075°11'0 0.0
2017-Feb-15 16:33N 39°53' W 075°11'0 0.0
2017-Feb-15 15:33N 39°53' W 075°11'0 0.0
2017-Feb-15 14:33N 39°53' W 075°11'0 0.0
2017-Feb-15 13:33N 39°53' W 075°11'0 0.0
2017-Feb-15 12:33N 39°53' W 075°11'0 0.0
2017-Feb-15 11:33N 39°53' W 075°11'0 0.0
2017-Feb-15 10:33N 39°53' W 075°11'0 0.0
2017-Feb-15 09:33N 39°53' W 075°11'0 0.0
2017-Feb-15 08:33N 39°53' W 075°11'0 0.0
2017-Feb-15 07:33N 39°53' W 075°11'0 0.0
2017-Feb-15 06:33N 39°53' W 075°11'2 1.8
2017-Feb-15 05:33N 39°52' W 075°13'1 0.9
2017-Feb-15 04:33N 39°52' W 075°14'0 0.2
2017-Feb-15 03:33N 39°52' W 075°14'3 2.5
2017-Feb-15 02:33N 39°53' W 075°11'0 0.0
2017-Feb-15 01:33N 39°53' W 075°11'0 0.0
2017-Feb-15 00:33N 39°53' W 075°11'1 1.2
2017-Feb-14 23:33N 39°54' W 075°12'1 1.2
2017-Feb-14 22:33N 39°53' W 075°11'0 0.0
2017-Feb-14 21:33N 39°53' W 075°11'0 0.0
2017-Feb-14 20:33N 39°53' W 075°11'1 1.3
2017-Feb-14 19:33N 39°52' W 075°12'2 1.5
2017-Feb-14 18:33N 39°51' W 075°14'0 0.0
2017-Feb-14 17:33N 39°51' W 075°14'2 2.1
2017-Feb-14 16:33N 39°51' W 075°16'1 1.1
2017-Feb-14 15:33N 39°51' W 075°15'1 0.6
2017-Feb-14 14:33N 39°51' W 075°16'0 0.0
2017-Feb-14 13:33N 39°51' W 075°16'0 0.0
2017-Feb-14 12:33N 39°51' W 075°16'7 7.0
2017-Feb-14 11:33N 39°49' W 075°24'0 0.0
2017-Feb-14 10:33N 39°49' W 075°24'0 0.1
2017-Feb-14 09:33N 39°49' W 075°24'1 0.5
2017-Feb-14 08:34N 39°48' W 075°25'1 1.3
2017-Feb-14 07:33N 39°49' W 075°23'6 6.1
2017-Feb-14 06:33N 39°51' W 075°16'0 0.0
2017-Feb-14 05:33N 39°51' W 075°16'0 0.0
2017-Feb-14 04:33N 39°51' W 075°16'0 0.0
2017-Feb-14 03:33N 39°51' W 075°16'0 0.0
2017-Feb-14 02:33N 39°51' W 075°16'0 0.0
2017-Feb-14 01:33N 39°51' W 075°16'0 0.0
2017-Feb-14 00:33N 39°51' W 075°16'0 0.4
2017-Feb-13 23:34N 39°51' W 075°16'0 0.0
2017-Feb-13 22:33N 39°51' W 075°16'2 2.1
2017-Feb-13 21:34N 39°51' W 075°19'2 2.2
2017-Feb-13 20:33N 39°51' W 075°16'2 1.9
2017-Feb-13 19:33N 39°51' W 075°14'3 2.7
2017-Feb-13 18:33N 39°53' W 075°11'3 2.6
2017-Feb-13 17:33N 39°54' W 075°08'2 1.9
2017-Feb-13 16:33N 39°53' W 075°10'3 3.0
2017-Feb-13 15:33N 39°52' W 075°14'2 1.9
2017-Feb-13 14:33N 39°51' W 075°16'0 0.0
2017-Feb-13 13:33N 39°51' W 075°16'0 0.0
2017-Feb-13 12:33N 39°51' W 075°16'0 0.0
2017-Feb-13 11:33N 39°51' W 075°16'0 0.0
2017-Feb-13 10:33N 39°51' W 075°16'0 0.0
2017-Feb-13 09:33N 39°51' W 075°16'0 0.0
2017-Feb-13 08:33N 39°51' W 075°16'0 0.0
2017-Feb-13 07:33N 39°51' W 075°16'4 4.4
2017-Feb-13 06:33N 39°50' W 075°21'3 2.8
2017-Feb-13 05:33N 39°49' W 075°24'2 1.9
2017-Feb-13 04:34N 39°48' W 075°26'1 0.7
2017-Feb-13 03:33N 39°48' W 075°26'0 0.0
2017-Feb-13 02:33N 39°48' W 075°26'0 0.0
2017-Feb-13 01:33N 39°48' W 075°26'0 0.0
2017-Feb-13 00:33N 39°48' W 075°26'0 0.0
2017-Feb-12 23:33N 39°48' W 075°26'1 1.5
2017-Feb-12 22:33N 39°49' W 075°24'6 6.5
2017-Feb-12 21:34N 39°51' W 075°16'1 0.9
2017-Feb-12 20:34N 39°51' W 075°17'1 1.2
2017-Feb-12 19:34N 39°51' W 075°16'0 0.0
2017-Feb-12 18:33N 39°51' W 075°16'0 0.0
2017-Feb-12 17:34N 39°51' W 075°16'0 0.0
2017-Feb-12 16:33N 39°51' W 075°16'8 8.2
2017-Feb-12 15:33N 39°48' W 075°26'0 0.1
2017-Feb-12 14:33N 39°48' W 075°26'0 0.0
2017-Feb-12 13:33N 39°48' W 075°26'1 1.3
2017-Feb-12 12:34N 39°49' W 075°24'0 0.1
2017-Feb-12 11:33N 39°49' W 075°24'2 1.8
2017-Feb-12 10:33N 39°50' W 075°22'9 9.3
2017-Feb-12 09:33N 39°53' W 075°11'0 0.0
2017-Feb-12 08:34N 39°53' W 075°11'0 0.0
2017-Feb-12 07:33N 39°53' W 075°11'0 0.0
2017-Feb-12 06:33N 39°53' W 075°11'  

Dump ship's entire track history